createdAt,value
2022-08-04T00:00:03.555Z,72.20
2022-08-04T00:03:07.117Z,72.20
2022-08-04T00:05:46.492Z,72.50
2022-08-04T00:08:31.683Z,72.60
2022-08-04T00:10:59.963Z,72.70
2022-08-04T00:13:31.359Z,72.80
2022-08-04T00:15:59.642Z,73.00
2022-08-04T00:18:52.676Z,73.10
2022-08-04T00:21:24.615Z,73.30
2022-08-04T00:24:12.413Z,73.40
2022-08-04T00:26:40.147Z,73.70
2022-08-04T00:29:06.800Z,73.90
2022-08-04T00:31:54.923Z,74.80
2022-08-04T00:34:21.414Z,74.10
2022-08-04T00:36:48.545Z,74.30
2022-08-04T00:39:17.009Z,74.40
2022-08-04T00:42:05.549Z,74.70
2022-08-04T00:44:38.190Z,74.90
2022-08-04T00:47:19.009Z,75.10
2022-08-04T00:50:08.010Z,75.30
2022-08-04T00:52:46.840Z,75.60
2022-08-04T00:55:32.369Z,75.70
2022-08-04T00:58:18.849Z,76.00
2022-08-04T01:01:26.657Z,76.20
2022-08-04T01:04:22.105Z,76.40
2022-08-04T01:07:04.136Z,76.50
2022-08-04T01:09:52.708Z,76.60
2022-08-04T01:12:31.552Z,76.70
2022-08-04T01:15:53.987Z,76.80
2022-08-04T01:18:35.133Z,76.80
2022-08-04T01:21:29.430Z,76.90
2022-08-04T01:23:56.060Z,77.00
2022-08-04T01:26:42.597Z,77.00
2022-08-04T01:29:23.129Z,77.80
2022-08-04T01:32:04.063Z,77.80
2022-08-04T01:35:02.089Z,77.30
2022-08-04T01:37:50.096Z,77.40
2022-08-04T01:40:17.431Z,77.60
2022-08-04T01:42:47.559Z,78.40
2022-08-04T01:45:15.336Z,77.60
2022-08-04T01:47:55.820Z,77.70
2022-08-04T01:50:24.091Z,77.80
2022-08-04T01:52:53.798Z,78.00
2022-08-04T01:55:21.359Z,78.10
2022-08-04T01:57:51.071Z,78.30
2022-08-04T02:00:20.942Z,78.50
2022-08-04T02:02:48.973Z,78.60
2022-08-04T02:05:17.671Z,78.80
2022-08-04T02:08:12.557Z,79.00
2022-08-04T02:10:42.263Z,79.10
2022-08-04T02:13:33.062Z,79.10
2022-08-04T02:16:35.581Z,79.40
2022-08-04T02:19:27.679Z,79.60
2022-08-04T02:21:57.948Z,79.60
2022-08-04T02:24:27.782Z,79.80
2022-08-04T02:26:57.073Z,79.90
2022-08-04T02:29:37.620Z,80.10
2022-08-04T02:32:06.677Z,80.30
2022-08-04T02:35:05.646Z,80.60
2022-08-04T02:37:33.462Z,80.60
2022-08-04T02:40:03.982Z,80.70
2022-08-04T02:42:31.830Z,81.00
2022-08-04T02:44:59.847Z,81.10
2022-08-04T02:48:08.102Z,81.20
2022-08-04T02:50:28.235Z,81.40
2022-08-04T02:52:59.450Z,81.50
2022-08-04T02:55:28.948Z,81.70
2022-08-04T02:57:58.842Z,81.80
2022-08-04T03:00:26.464Z,82.00
2022-08-04T03:03:02.495Z,82.10
2022-08-04T03:06:01.013Z,82.20
2022-08-04T03:08:53.179Z,82.10
2022-08-04T03:11:32.061Z,82.30
2022-08-04T03:14:09.650Z,82.50
2022-08-04T03:17:05.259Z,82.60
2022-08-04T03:20:02.211Z,82.80
2022-08-04T03:23:11.673Z,82.90
2022-08-04T03:25:57.249Z,83.10
2022-08-04T03:28:47.616Z,83.30
2022-08-04T03:31:29.103Z,83.50
2022-08-04T03:34:18.786Z,83.70
2022-08-04T03:37:00.499Z,84.00
2022-08-04T03:39:39.010Z,84.30
2022-08-04T03:42:59.159Z,84.40
2022-08-04T03:45:59.592Z,84.60
2022-08-04T03:48:47.827Z,84.80
2022-08-04T03:51:58.081Z,85.90
2022-08-04T03:54:33.996Z,85.40
2022-08-04T03:57:40.349Z,85.70
2022-08-04T04:00:25.628Z,86.00
2022-08-04T04:03:11.384Z,86.30
2022-08-04T04:05:58.941Z,86.50
2022-08-04T04:08:42.542Z,86.90
2022-08-04T04:11:56.334Z,87.10
2022-08-04T04:14:49.654Z,87.40
2022-08-04T04:17:52.992Z,87.50
2022-08-04T04:20:33.062Z,87.70
2022-08-04T04:23:27.315Z,88.60
2022-08-04T04:26:06.691Z,88.00
2022-08-04T04:28:49.661Z,88.10
2022-08-04T04:31:37.522Z,88.30
2022-08-04T04:34:45.558Z,88.40
2022-08-04T04:37:51.777Z,88.50
2022-08-04T04:41:12.723Z,88.60
2022-08-04T04:44:02.119Z,88.70
2022-08-04T04:46:55.852Z,88.90
2022-08-04T04:49:33.072Z,88.90
2022-08-04T04:52:09.887Z,89.00
2022-08-04T04:54:36.487Z,89.20
2022-08-04T04:57:17.056Z,89.30
2022-08-04T05:00:03.650Z,89.50
2022-08-04T05:03:09.382Z,89.60
2022-08-04T05:05:54.108Z,89.70
2022-08-04T05:08:54.390Z,89.80
2022-08-04T05:11:40.166Z,90.00
2022-08-04T05:14:38.594Z,90.00
2022-08-04T05:17:10.572Z,90.10
2022-08-04T05:20:06.182Z,90.20
2022-08-04T05:22:42.214Z,90.20
2022-08-04T05:25:21.617Z,90.20
2022-08-04T05:28:00.560Z,90.30
2022-08-04T05:30:30.436Z,90.20
2022-08-04T05:33:09.478Z,90.30
2022-08-04T05:36:16.988Z,90.30
2022-08-04T05:38:36.049Z,90.30
2022-08-04T05:41:03.399Z,90.40
2022-08-04T05:43:30.787Z,90.40
2022-08-04T05:45:58.620Z,90.50
2022-08-04T05:48:26.886Z,90.50
2022-08-04T05:50:56.509Z,90.60
2022-08-04T05:53:27.984Z,90.60
2022-08-04T05:55:58.839Z,90.60
2022-08-04T05:58:29.738Z,90.70
2022-08-04T06:00:58.622Z,90.70
2022-08-04T06:03:27.041Z,90.60
2022-08-04T06:05:56.747Z,90.60
2022-08-04T06:08:24.366Z,90.70
2022-08-04T06:10:53.369Z,90.70
2022-08-04T06:13:46.688Z,90.70
2022-08-04T06:16:29.744Z,90.80
2022-08-04T06:20:01.890Z,90.80
2022-08-04T06:21:50.011Z,90.80
2022-08-04T06:24:20.139Z,90.80
2022-08-04T06:26:49.288Z,90.60
2022-08-04T06:29:33.716Z,90.50
2022-08-04T06:32:30.120Z,90.50
2022-08-04T06:35:04.163Z,90.50
2022-08-04T06:37:42.740Z,90.40
2022-08-04T06:40:31.512Z,90.40
2022-08-04T06:43:06.354Z,90.30
2022-08-04T06:45:36.898Z,90.30
2022-08-04T06:48:05.331Z,90.20
2022-08-04T06:51:25.117Z,90.20
2022-08-04T06:53:21.542Z,90.20
2022-08-04T06:55:49.830Z,90.20
2022-08-04T06:58:19.122Z,90.10
2022-08-04T07:00:47.716Z,90.10
2022-08-04T07:03:16.143Z,90.00
2022-08-04T07:05:43.190Z,90.00
2022-08-04T07:08:13.863Z,90.10
2022-08-04T07:10:41.053Z,90.10
2022-08-04T07:13:09.347Z,90.20
2022-08-04T07:15:38.929Z,90.20
2022-08-04T07:18:05.758Z,90.10
2022-08-04T07:20:35.643Z,90.10
2022-08-04T07:23:07.493Z,90.10
2022-08-04T07:26:01.063Z,90.00
2022-08-04T07:28:27.788Z,90.00
2022-08-04T07:30:55.948Z,89.80
2022-08-04T07:33:23.605Z,89.20
2022-08-04T07:36:09.765Z,89.00
2022-08-04T07:38:48.601Z,89.20
2022-08-04T07:41:38.519Z,89.10
2022-08-04T07:44:06.794Z,89.00
2022-08-04T07:46:33.734Z,89.10
2022-08-04T07:49:01.617Z,89.20
2022-08-04T07:51:30.496Z,88.90
2022-08-04T07:53:58.903Z,89.00
2022-08-04T07:56:29.168Z,89.00
2022-08-04T07:58:56.317Z,89.20
2022-08-04T08:01:26.851Z,88.70
2022-08-04T08:03:56.618Z,88.30
2022-08-04T08:06:33.027Z,87.90
2022-08-04T08:09:13.407Z,87.70
2022-08-04T08:12:36.466Z,87.60
2022-08-04T08:14:35.359Z,87.60
2022-08-04T08:17:04.396Z,87.20
2022-08-04T08:19:32.259Z,87.10
2022-08-04T08:22:00.744Z,86.90
2022-08-04T08:24:35.663Z,86.80
2022-08-04T08:27:06.730Z,86.40
2022-08-04T08:29:34.924Z,86.20
2022-08-04T08:32:08.264Z,86.70
2022-08-04T08:34:36.686Z,86.10
2022-08-04T08:37:30.854Z,86.10
2022-08-04T08:40:18.396Z,85.60
2022-08-04T08:44:06.106Z,85.70
2022-08-04T08:46:49.048Z,85.30
2022-08-04T08:50:01.955Z,84.30
2022-08-04T08:52:57.667Z,84.20
2022-08-04T08:55:40.661Z,83.60
2022-08-04T08:58:22.430Z,83.40
2022-08-04T09:01:34.189Z,83.10
2022-08-04T09:04:32.303Z,83.90
2022-08-04T09:07:10.408Z,84.40
2022-08-04T09:09:49.415Z,83.40
2022-08-04T09:12:25.908Z,82.90
2022-08-04T09:15:27.700Z,82.40
2022-08-04T09:18:02.812Z,82.80
2022-08-04T09:20:47.854Z,83.40
2022-08-04T09:23:36.401Z,82.30
2022-08-04T09:26:29.519Z,82.40
2022-08-04T09:29:15.526Z,80.80
2022-08-04T09:32:18.073Z,82.00
2022-08-04T09:35:03.543Z,82.30
2022-08-04T09:37:45.976Z,81.60
2022-08-04T09:40:53.648Z,81.80
2022-08-04T09:43:59.270Z,81.10
2022-08-04T09:46:51.538Z,81.10
2022-08-04T09:49:38.538Z,79.90
2022-08-04T09:52:11.508Z,79.20
2022-08-04T09:55:07.257Z,79.50
2022-08-04T09:57:56.310Z,79.00
2022-08-04T10:00:40.753Z,79.70
2022-08-04T10:03:14.750Z,79.90
2022-08-04T10:06:11.709Z,79.50
2022-08-04T10:08:57.419Z,79.40
2022-08-04T10:11:55.971Z,79.20
2022-08-04T10:14:39.315Z,79.00
2022-08-04T10:17:52.407Z,79.70
2022-08-04T10:21:00.084Z,80.10
2022-08-04T10:23:56.421Z,79.80
2022-08-04T10:26:29.466Z,78.90
2022-08-04T10:29:34.983Z,79.90
2022-08-04T10:32:26.363Z,78.50
2022-08-04T10:35:01.883Z,79.60
2022-08-04T10:37:58.995Z,77.90
2022-08-04T10:40:50.589Z,77.40
2022-08-04T10:43:33.073Z,77.50
2022-08-04T10:46:14.796Z,77.00
2022-08-04T10:48:59.031Z,76.60
2022-08-04T10:51:58.436Z,75.80
2022-08-04T10:55:08.006Z,76.10
2022-08-04T10:57:51.659Z,74.80
2022-08-04T11:00:25.790Z,74.70
2022-08-04T11:02:58.433Z,75.00
2022-08-04T11:05:27.873Z,75.00
2022-08-04T11:08:07.553Z,74.40
2022-08-04T11:10:45.352Z,74.30
2022-08-04T11:13:22.021Z,74.00
2022-08-04T11:16:03.207Z,74.00
2022-08-04T11:18:54.385Z,74.00
2022-08-04T11:21:26.379Z,74.00
2022-08-04T11:24:30.356Z,73.60
2022-08-04T11:27:02.124Z,73.60
2022-08-04T11:29:40.095Z,73.60
2022-08-04T11:32:17.641Z,73.00
2022-08-04T11:34:52.842Z,74.00
2022-08-04T11:37:28.914Z,73.90
2022-08-04T11:40:13.676Z,74.20
2022-08-04T11:42:52.416Z,73.00
2022-08-04T11:45:31.032Z,71.80
2022-08-04T11:48:00.703Z,72.60
2022-08-04T11:50:43.312Z,72.00
2022-08-04T11:53:17.278Z,73.10
2022-08-04T11:56:07.779Z,69.30
2022-08-04T11:58:33.507Z,68.40
2022-08-04T12:01:06.534Z,68.10
2022-08-04T12:04:10.902Z,69.60
2022-08-04T12:07:21.354Z,70.40
2022-08-04T12:09:53.123Z,67.40
2022-08-04T12:12:32.511Z,68.80
2022-08-04T12:15:26.453Z,67.60
2022-08-04T12:18:05.660Z,67.00
2022-08-04T12:20:42.192Z,69.30
2022-08-04T12:23:18.753Z,69.30
2022-08-04T12:25:53.826Z,67.90
2022-08-04T12:28:52.600Z,68.40
2022-08-04T12:31:40.354Z,67.10
2022-08-04T12:34:13.707Z,68.00
2022-08-04T12:36:42.655Z,69.70
2022-08-04T12:39:15.692Z,68.70
2022-08-04T12:42:21.620Z,69.20
2022-08-04T12:44:54.386Z,69.20
2022-08-04T12:47:29.283Z,69.00
2022-08-04T12:50:02.626Z,69.20
2022-08-04T12:55:31.754Z,69.30
2022-08-04T12:58:01.539Z,67.80
2022-08-04T13:00:41.774Z,69.00
2022-08-04T13:03:15.486Z,67.80
2022-08-04T13:05:43.681Z,68.40
2022-08-04T13:08:15.309Z,69.20
2022-08-04T13:10:46.520Z,67.90
2022-08-04T13:13:19.283Z,66.00
2022-08-04T13:16:00.621Z,65.70
2022-08-04T13:18:32.577Z,66.60
2022-08-04T13:21:20.490Z,66.60
2022-08-04T13:24:09.819Z,67.10
2022-08-04T13:26:53.903Z,66.70
2022-08-04T13:29:57.693Z,67.00
2022-08-04T13:32:23.473Z,67.30
2022-08-04T13:34:53.773Z,66.80
2022-08-04T13:37:25.767Z,65.80
2022-08-04T13:39:55.941Z,65.50
2022-08-04T13:42:24.399Z,65.90
2022-08-04T13:44:57.136Z,64.50
2022-08-04T13:47:30.519Z,65.00
2022-08-04T13:50:16.064Z,64.20
2022-08-04T13:52:44.910Z,63.70
2022-08-04T13:55:35.311Z,64.90
2022-08-04T13:58:10.475Z,62.40
2022-08-04T14:00:45.298Z,63.20
2022-08-04T14:03:24.414Z,63.70
2022-08-04T14:06:12.222Z,62.20
2022-08-04T14:08:52.056Z,60.70
2022-08-04T14:12:06.738Z,63.00
2022-08-04T14:14:17.232Z,61.70
2022-08-04T14:17:29.921Z,62.10
2022-08-04T14:20:01.602Z,62.10
2022-08-04T14:22:31.258Z,62.30
2022-08-04T14:25:09.048Z,61.80
2022-08-04T14:27:46.630Z,61.40
2022-08-04T14:30:32.715Z,61.00
2022-08-04T14:34:01.482Z,60.20
2022-08-04T14:35:57.690Z,60.30
2022-08-04T14:38:24.405Z,59.70
2022-08-04T14:40:59.759Z,60.50
2022-08-04T14:43:29.828Z,60.40
2022-08-04T14:46:04.479Z,60.00
2022-08-04T14:48:31.457Z,59.30
2022-08-04T14:50:58.318Z,58.10
2022-08-04T14:53:26.555Z,56.50
2022-08-04T14:55:57.128Z,56.10
2022-08-04T14:58:35.110Z,55.90
2022-08-04T15:01:10.377Z,57.60
2022-08-04T15:03:50.653Z,57.00
2022-08-04T15:06:28.299Z,57.00
2022-08-04T15:08:58.006Z,57.30
2022-08-04T15:11:24.997Z,55.10
2022-08-04T15:13:53.501Z,54.20
2022-08-04T15:16:21.851Z,54.00
2022-08-04T15:18:49.587Z,53.30
2022-08-04T15:21:16.865Z,52.80
2022-08-04T15:23:44.151Z,52.40
2022-08-04T15:26:23.715Z,52.50
2022-08-04T15:28:58.113Z,52.10
2022-08-04T15:32:06.621Z,52.70
2022-08-04T15:34:14.777Z,53.10
2022-08-04T15:36:56.663Z,53.90
2022-08-04T15:39:58.551Z,52.50
2022-08-04T15:43:09.898Z,52.50
2022-08-04T15:46:34.955Z,52.60
2022-08-04T15:48:39.325Z,51.80
2022-08-04T15:51:15.216Z,52.80
2022-08-04T15:54:08.705Z,51.00
2022-08-04T15:57:02.298Z,50.30
2022-08-04T16:00:07.661Z,50.10
2022-08-04T16:02:39.319Z,49.90
2022-08-04T16:05:18.390Z,50.70
2022-08-04T16:08:11.747Z,51.10
2022-08-04T16:10:41.010Z,50.90
2022-08-04T16:13:15.156Z,50.20
2022-08-04T16:15:45.086Z,50.80
2022-08-04T16:18:26.401Z,49.90
2022-08-04T16:20:58.384Z,48.90
2022-08-04T16:23:55.006Z,49.80
2022-08-04T16:26:45.117Z,49.20
2022-08-04T16:29:30.858Z,48.90
2022-08-04T16:32:12.892Z,49.10
2022-08-04T16:35:05.517Z,49.20
2022-08-04T16:37:40.068Z,49.40
2022-08-04T16:40:37.505Z,49.40
2022-08-04T16:43:07.650Z,48.30
2022-08-04T16:45:53.723Z,47.20
2022-08-04T16:48:40.790Z,46.30
2022-08-04T16:51:09.864Z,46.00
2022-08-04T16:54:02.825Z,46.40
2022-08-04T16:56:34.419Z,45.80
2022-08-04T16:59:12.706Z,44.50
2022-08-04T17:01:51.043Z,44.10
2022-08-04T17:04:21.267Z,43.50
2022-08-04T17:06:48.148Z,43.80
2022-08-04T17:09:19.516Z,43.40
2022-08-04T17:11:48.262Z,42.80
2022-08-04T17:14:25.637Z,42.70
2022-08-04T17:16:53.554Z,42.60
2022-08-04T17:19:25.685Z,43.10
2022-08-04T17:22:04.755Z,44.00
2022-08-04T17:24:33.978Z,44.00
2022-08-04T17:27:01.014Z,43.90
2022-08-04T17:29:42.209Z,43.30
2022-08-04T17:32:20.820Z,42.60
2022-08-04T17:35:03.726Z,42.10
2022-08-04T17:40:25.884Z,41.60
2022-08-04T17:44:00.914Z,42.80
2022-08-04T17:46:28.238Z,42.30
2022-08-04T17:49:16.526Z,42.60
2022-08-04T17:52:05.548Z,42.60
2022-08-04T17:54:39.931Z,41.80
2022-08-04T17:57:27.799Z,42.00
2022-08-04T18:00:00.014Z,42.80
2022-08-04T18:02:34.093Z,42.70
2022-08-04T18:05:06.725Z,42.30
2022-08-04T18:08:37.934Z,43.10
2022-08-04T18:10:55.549Z,43.00
2022-08-04T18:13:26.811Z,43.30
2022-08-04T18:16:10.058Z,43.60
2022-08-04T18:18:39.682Z,43.80
2022-08-04T18:21:15.589Z,44.40
2022-08-04T18:23:50.719Z,45.00
2022-08-04T18:26:18.057Z,45.40
2022-08-04T18:28:44.725Z,46.60
2022-08-04T18:31:11.537Z,46.50
2022-08-04T18:33:43.313Z,47.00
2022-08-04T18:36:32.613Z,47.20
2022-08-04T18:39:13.009Z,47.70
2022-08-04T18:42:00.714Z,48.20
2022-08-04T18:44:31.028Z,48.50
2022-08-04T18:47:19.013Z,48.80
2022-08-04T18:50:59.888Z,48.90
2022-08-04T18:52:32.385Z,49.20
2022-08-04T18:55:01.904Z,49.50
2022-08-04T18:57:59.807Z,49.80
2022-08-04T19:00:20.189Z,50.20
2022-08-04T19:02:47.523Z,50.40
2022-08-04T19:05:17.518Z,50.60
2022-08-04T19:08:11.229Z,50.70
2022-08-04T19:10:32.751Z,50.70
2022-08-04T19:13:01.383Z,51.00
2022-08-04T19:18:18.730Z,51.20
2022-08-04T19:20:46.901Z,51.50
2022-08-04T19:24:29.659Z,51.60
2022-08-04T19:26:06.889Z,51.80
2022-08-04T19:28:36.584Z,52.00
2022-08-04T19:31:06.669Z,52.20
2022-08-04T19:33:58.191Z,52.30
2022-08-04T19:36:20.753Z,52.40
2022-08-04T19:38:55.412Z,52.50
2022-08-04T19:41:22.797Z,52.60
2022-08-04T19:43:53.498Z,52.60
2022-08-04T19:46:21.328Z,53.40
2022-08-04T19:48:59.187Z,52.80
2022-08-04T19:51:28.820Z,53.00
2022-08-04T19:54:03.960Z,53.20
2022-08-04T19:56:40.381Z,53.30
2022-08-04T19:59:11.199Z,53.40
2022-08-04T20:01:45.243Z,53.60
2022-08-04T20:04:13.891Z,53.60
2022-08-04T20:06:40.723Z,53.70
2022-08-04T20:09:25.456Z,53.70
2022-08-04T20:11:55.263Z,53.80
2022-08-04T20:14:32.555Z,53.80
2022-08-04T20:17:10.421Z,54.00
2022-08-04T20:19:38.291Z,54.20
2022-08-04T20:22:05.384Z,54.30
2022-08-04T20:25:00.572Z,54.50
2022-08-04T20:27:51.629Z,54.60
2022-08-04T20:30:28.493Z,54.80
2022-08-04T20:32:55.938Z,54.80
2022-08-04T20:35:28.478Z,55.00
2022-08-04T20:38:00.386Z,55.00
2022-08-04T20:40:27.447Z,55.10
2022-08-04T20:42:54.169Z,55.10
2022-08-04T20:45:24.003Z,55.20
2022-08-04T20:48:10.726Z,55.20
2022-08-04T20:50:37.464Z,55.30
2022-08-04T20:53:06.170Z,55.50
2022-08-04T20:55:55.444Z,55.50
2022-08-04T20:58:27.693Z,55.70
2022-08-04T21:00:55.336Z,55.90
2022-08-04T21:03:38.480Z,56.00
2022-08-04T21:06:09.238Z,56.20
2022-08-04T21:08:37.016Z,56.20
2022-08-04T21:11:06.864Z,56.30
2022-08-04T21:13:51.981Z,56.40
2022-08-04T21:16:55.729Z,56.50
2022-08-04T21:19:06.731Z,56.60
2022-08-04T21:21:40.731Z,56.80
2022-08-04T21:24:07.685Z,57.00
2022-08-04T21:26:35.319Z,57.10
2022-08-04T21:29:04.592Z,57.20
2022-08-04T21:31:36.777Z,57.40
2022-08-04T21:34:17.207Z,57.50
2022-08-04T21:37:04.001Z,57.60
2022-08-04T21:39:32.662Z,57.80
2022-08-04T21:44:46.571Z,58.00
2022-08-04T21:47:23.559Z,58.20
2022-08-04T21:49:56.581Z,58.20
2022-08-04T21:52:24.595Z,58.20
2022-08-04T21:54:54.092Z,58.30
2022-08-04T21:57:24.894Z,58.50
2022-08-04T21:59:52.469Z,59.20
2022-08-04T22:02:19.435Z,58.70
2022-08-04T22:04:48.132Z,58.70
2022-08-04T22:07:16.573Z,58.90
2022-08-04T22:09:45.637Z,59.00
2022-08-04T22:12:29.927Z,59.10
2022-08-04T22:14:57.527Z,59.20
2022-08-04T22:17:26.975Z,59.30
2022-08-04T22:20:02.539Z,59.40
2022-08-04T22:22:29.962Z,59.50
2022-08-04T22:25:01.923Z,59.50
2022-08-04T22:27:58.023Z,59.60
2022-08-04T22:30:32.879Z,59.70
2022-08-04T22:33:05.428Z,59.90
2022-08-04T22:35:44.075Z,60.00
2022-08-04T22:38:24.499Z,60.10
2022-08-04T22:41:09.325Z,60.20
2022-08-04T22:43:37.545Z,60.30
2022-08-04T22:46:12.108Z,60.50
2022-08-04T22:48:43.312Z,60.50
2022-08-04T22:51:10.563Z,60.70
2022-08-04T22:53:39.864Z,60.90
2022-08-04T22:56:10.739Z,61.00
2022-08-04T22:58:40.066Z,61.20
2022-08-04T23:01:07.862Z,61.30
2022-08-04T23:03:37.125Z,61.50
2022-08-04T23:06:11.734Z,61.50
2022-08-04T23:08:43.276Z,61.60
2022-08-04T23:11:13.703Z,61.80
2022-08-04T23:13:42.101Z,61.90
2022-08-04T23:16:10.391Z,62.10
2022-08-04T23:18:41.760Z,62.20
2022-08-04T23:21:10.201Z,62.30
2022-08-04T23:23:38.144Z,62.50
2022-08-04T23:26:13.704Z,62.70
2022-08-04T23:28:40.967Z,62.80
2022-08-04T23:31:10.200Z,62.90
2022-08-04T23:33:51.388Z,63.10
2022-08-04T23:36:29.571Z,63.20
2022-08-04T23:39:03.914Z,63.40
2022-08-04T23:41:54.642Z,63.60
2022-08-04T23:44:24.702Z,63.70
2022-08-04T23:47:03.375Z,63.90
2022-08-04T23:49:43.519Z,64.10
2022-08-04T23:52:23.509Z,64.10
2022-08-04T23:54:58.199Z,64.30
2022-08-04T23:57:25.807Z,64.30
